Time;durP1;ratioP1;P1;durP2;ratioP2;P2;SDS_P1;SDS_P2;PMS_P1;PMS_P2;Temp;Humidity;BMP_temperature;BMP_pressure;BME280_temperature;BME280_humidity;BME280_pressure;Samples;Min_cycle;Max_cycle;Signal;HPM_P1;HPM_P2
2023/06/26 00:01:32;;;;;;;9.57;8.20;;;25.50;54.00;;;;;;5009434;28;20090;-83
2023/06/26 00:03:59;;;;;;;9.73;8.48;;;25.50;54.00;;;;;;5010777;28;20577;-83
2023/06/26 00:06:26;;;;;;;11.73;8.85;;;25.40;54.10;;;;;;5010153;28;20349;-83
2023/06/26 00:08:54;;;;;;;9.95;8.63;;;25.40;54.30;;;;;;5010428;28;20084;-83
2023/06/26 00:11:21;;;;;;;10.27;8.83;;;25.40;54.40;;;;;;5009816;28;20417;-83
2023/06/26 00:13:50;;;;;;;10.32;9.20;;;25.30;54.30;;;;;;5009331;28;20133;-83
2023/06/26 00:16:17;;;;;;;9.63;8.57;;;25.30;54.30;;;;;;5010311;28;20050;-83
2023/06/26 00:18:43;;;;;;;12.57;9.93;;;25.20;54.30;;;;;;5010136;28;20050;-83
2023/06/26 00:21:10;;;;;;;17.90;9.13;;;25.20;54.30;;;;;;5009888;28;20077;-83
2023/06/26 00:23:37;;;;;;;15.97;9.20;;;25.10;54.20;;;;;;5009953;28;20668;-83
2023/06/26 00:26:05;;;;;;;12.93;8.63;;;25.00;54.20;;;;;;5010114;28;20074;-83
2023/06/26 00:28:31;;;;;;;12.70;10.05;;;25.00;54.10;;;;;;5009991;28;20669;-83
2023/06/26 00:31:00;;;;;;;15.98;9.57;;;25.00;54.10;;;;;;4992517;28;20078;-83
2023/06/26 00:33:29;;;;;;;13.57;10.63;;;25.00;54.20;;;;;;4993264;28;20086;-83
2023/06/26 00:35:58;;;;;;;11.47;9.93;;;25.00;54.40;;;;;;4993114;28;20504;-83
2023/06/26 00:38:24;;;;;;;9.90;7.75;;;24.90;54.40;;;;;;4993401;28;20137;-83
2023/06/26 00:40:51;;;;;;;10.90;9.52;;;24.80;54.30;;;;;;5009210;28;20057;-83
2023/06/26 00:43:18;;;;;;;11.80;9.60;;;24.80;54.40;;;;;;4993225;28;20066;-83
2023/06/26 00:45:45;;;;;;;11.43;10.00;;;24.70;54.60;;;;;;5010879;28;20141;-83
2023/06/26 00:48:15;;;;;;;12.43;10.20;;;24.70;54.70;;;;;;4989247;28;20686;-83
2023/06/26 00:50:43;;;;;;;12.75;9.32;;;24.70;54.70;;;;;;4994631;28;20050;-83
2023/06/26 00:53:10;;;;;;;12.63;10.60;;;24.60;54.70;;;;;;5025885;28;20050;-83
2023/06/26 00:55:37;;;;;;;10.98;9.77;;;24.60;55.00;;;;;;5009444;28;20692;-83
2023/06/26 00:58:04;;;;;;;11.50;9.63;;;24.50;55.20;;;;;;4993157;28;20126;-83
2023/06/26 01:00:31;;;;;;;13.10;9.93;;;24.50;55.10;;;;;;5008328;28;20070;-83
2023/06/26 01:02:58;;;;;;;13.25;10.95;;;24.40;55.30;;;;;;4993099;28;20101;-83
2023/06/26 01:05:30;;;;;;;11.10;9.90;;;24.40;55.50;;;;;;4991149;28;20046;-83
2023/06/26 01:07:58;;;;;;;11.77;10.20;;;24.40;55.50;;;;;;5009456;28;20133;-83
2023/06/26 01:10:27;;;;;;;12.57;11.02;;;24.40;55.70;;;;;;5010413;28;20125;-83
2023/06/26 01:12:54;;;;;;;12.60;10.30;;;24.40;55.70;;;;;;4992588;28;20065;-83
2023/06/26 01:15:22;;;;;;;10.88;9.73;;;24.40;55.80;;;;;;5008935;28;20054;-82
2023/06/26 01:17:52;;;;;;;12.73;10.82;;;24.30;55.80;;;;;;5009063;28;20125;-83
2023/06/26 01:20:20;;;;;;;13.70;11.63;;;24.20;56.00;;;;;;4992493;28;20137;-83
2023/06/26 01:23:05;;;;;;;11.32;10.00;;;24.20;56.20;;;;;;4991381;28;20432;-83
2023/06/26 01:25:41;;;;;;;11.30;9.50;;;24.20;56.20;;;;;;5008672;28;20470;-83
2023/06/26 01:28:14;;;;;;;12.57;9.82;;;24.10;56.20;;;;;;5008728;28;20104;-83
2023/06/26 01:30:45;;;;;;;12.30;10.73;;;24.10;56.40;;;;;;5008665;28;20134;-83
2023/06/26 01:33:12;;;;;;;13.38;10.98;;;24.00;56.50;;;;;;4989300;28;20440;-83
2023/06/26 01:35:40;;;;;;;11.25;10.05;;;24.00;56.50;;;;;;4995341;28;20078;-83
2023/06/26 01:38:16;;;;;;;13.30;10.37;;;24.00;56.50;;;;;;4992562;28;20100;-83
2023/06/26 01:40:43;;;;;;;11.23;10.02;;;24.00;56.40;;;;;;5007136;28;20105;-83
2023/06/26 01:43:21;;;;;;;11.40;9.98;;;24.00;56.60;;;;;;4992093;28;20057;-83
2023/06/26 01:45:52;;;;;;;11.68;10.43;;;24.00;56.60;;;;;;5008339;28;20049;-82
2023/06/26 01:48:24;;;;;;;11.75;10.40;;;24.00;56.70;;;;;;4992569;28;20046;-83
2023/06/26 01:50:53;;;;;;;13.53;10.33;;;24.00;56.80;;;;;;4988414;28;20505;-83
2023/06/26 01:53:25;;;;;;;11.75;10.02;;;24.00;56.90;;;;;;4989183;28;20070;-82
2023/06/26 01:55:54;;;;;;;13.02;10.77;;;24.00;56.80;;;;;;4988885;28;20375;-82
2023/06/26 01:58:26;;;;;;;11.93;9.38;;;23.90;57.00;;;;;;5001484;28;20078;-83
2023/06/26 02:00:53;;;;;;;10.95;9.68;;;23.90;56.90;;;;;;4991568;28;20050;-83
2023/06/26 02:03:24;;;;;;;11.97;10.30;;;23.90;56.80;;;;;;4991869;28;20050;-83
2023/06/26 02:05:51;;;;;;;12.25;10.25;;;23.80;57.20;;;;;;5008423;28;20651;-83
2023/06/26 02:08:18;;;;;;;12.82;9.93;;;23.80;57.30;;;;;;4991714;28;20053;-82
2023/06/26 02:10:49;;;;;;;12.40;10.35;;;23.80;57.30;;;;;;5007964;28;20078;-83
2023/06/26 02:13:17;;;;;;;13.68;11.23;;;23.70;57.60;;;;;;4990766;28;20046;-82
2023/06/26 02:15:45;;;;;;;12.37;9.67;;;23.70;57.70;;;;;;4987566;28;20051;-83
2023/06/26 02:18:12;;;;;;;12.65;11.05;;;23.60;58.00;;;;;;4997126;28;20133;-83
2023/06/26 02:20:39;;;;;;;13.00;11.15;;;23.60;58.10;;;;;;4987798;28;20496;-83
2023/06/26 02:23:06;;;;;;;14.77;11.52;;;23.60;58.40;;;;;;4999056;28;20500;-83
2023/06/26 02:25:36;;;;;;;14.13;11.63;;;23.50;58.60;;;;;;4991426;28;20586;-83
2023/06/26 02:28:03;;;;;;;13.13;10.90;;;23.50;58.90;;;;;;5009063;28;20062;-83
2023/06/26 02:30:30;;;;;;;14.05;11.85;;;23.40;59.00;;;;;;5007721;28;20054;-83
2023/06/26 02:33:01;;;;;;;15.93;12.35;;;23.40;59.30;;;;;;4986910;28;20125;-83
2023/06/26 02:35:28;;;;;;;14.38;11.73;;;23.30;59.40;;;;;;4987959;28;20125;-83
2023/06/26 02:37:55;;;;;;;13.32;11.27;;;23.30;59.40;;;;;;5000762;28;20126;-83
2023/06/26 02:40:23;;;;;;;14.77;11.80;;;23.20;59.60;;;;;;4991462;28;20060;-83
2023/06/26 02:42:52;;;;;;;14.70;12.25;;;23.20;59.60;;;;;;4991554;28;20068;-83
2023/06/26 02:45:20;;;;;;;14.93;12.90;;;23.20;59.90;;;;;;4991193;28;20542;-82
2023/06/26 02:47:48;;;;;;;17.63;13.48;;;23.10;60.00;;;;;;4990257;28;20060;-82
2023/06/26 02:50:16;;;;;;;17.48;13.20;;;23.10;60.10;;;;;;5000048;28;20055;-82
2023/06/26 02:53:09;;;;;;;16.47;13.57;;;23.10;60.30;;;;;;5001183;28;20449;-83
2023/06/26 02:55:38;;;;;;;16.05;13.75;;;23.00;60.30;;;;;;4989040;28;20109;-83
2023/06/26 02:58:06;;;;;;;17.05;14.10;;;23.00;60.50;;;;;;4988775;28;20054;-83
2023/06/26 03:00:34;;;;;;;15.80;12.65;;;23.00;60.60;;;;;;4990361;28;20618;-83
2023/06/26 03:03:04;;;;;;;16.77;13.90;;;22.90;60.70;;;;;;4990362;28;20575;-82
2023/06/26 03:05:32;;;;;;;15.37;13.77;;;22.90;60.90;;;;;;4990375;28;20516;-82
2023/06/26 03:08:00;;;;;;;16.10;13.45;;;22.90;61.10;;;;;;5005014;28;20065;-82
2023/06/26 03:10:28;;;;;;;14.63;12.90;;;22.80;61.10;;;;;;5008025;28;20056;-82
2023/06/26 03:12:55;;;;;;;16.00;13.48;;;22.80;61.30;;;;;;4987608;28;20538;-82
2023/06/26 03:15:22;;;;;;;14.90;13.30;;;22.70;61.50;;;;;;4990364;28;20081;-82
2023/06/26 03:17:48;;;;;;;15.53;13.13;;;22.70;61.60;;;;;;5006542;28;20133;-82
2023/06/26 03:20:22;;;;;;;15.55;12.90;;;22.70;61.80;;;;;;4988753;28;20558;-82
2023/06/26 03:22:55;;;;;;;15.88;13.13;;;22.60;61.90;;;;;;4989994;28;20077;-82
2023/06/26 03:25:23;;;;;;;14.80;12.50;;;22.60;62.30;;;;;;5005341;28;20082;-82
2023/06/26 03:27:56;;;;;;;13.55;11.48;;;22.60;62.30;;;;;;5003555;28;20484;-82
2023/06/26 03:30:23;;;;;;;16.03;12.27;;;22.60;62.40;;;;;;4987050;28;20051;-82
2023/06/26 03:32:53;;;;;;;14.80;12.07;;;22.50;62.80;;;;;;4996416;28;20488;-82
2023/06/26 03:35:20;;;;;;;14.43;11.77;;;22.50;63.10;;;;;;5005597;28;20050;-82
2023/06/26 03:37:49;;;;;;;14.35;11.45;;;22.50;63.20;;;;;;5005037;28;20594;-82
2023/06/26 03:40:18;;;;;;;14.43;11.15;;;22.50;63.60;;;;;;4989404;28;20050;-82
2023/06/26 03:42:46;;;;;;;13.63;11.60;;;22.30;64.00;;;;;;4986051;28;20066;-82
2023/06/26 03:45:13;;;;;;;14.73;11.48;;;22.30;64.20;;;;;;4986767;28;20058;-82
2023/06/26 03:47:43;;;;;;;14.27;11.13;;;22.30;64.10;;;;;;4987042;28;20094;-82
2023/06/26 03:50:10;;;;;;;12.85;10.63;;;22.20;64.70;;;;;;4998514;28;20051;-82
2023/06/26 03:52:37;;;;;;;13.93;11.02;;;22.20;64.70;;;;;;4990217;28;20448;-82
2023/06/26 03:55:05;;;;;;;11.83;9.47;;;22.20;65.00;;;;;;5006860;28;20610;-82
2023/06/26 03:57:34;;;;;;;12.32;9.45;;;22.10;65.20;;;;;;4989925;28;20054;-82
2023/06/26 04:00:01;;;;;;;11.70;9.15;;;22.10;65.80;;;;;;5005445;28;20054;-82
2023/06/26 04:02:28;;;;;;;12.38;9.35;;;22.10;65.80;;;;;;5006403;28;20586;-82
2023/06/26 04:04:55;;;;;;;11.15;9.10;;;22.00;66.00;;;;;;5023347;28;20078;-82
2023/06/26 04:07:22;;;;;;;12.13;8.90;;;22.00;66.20;;;;;;5006476;28;20055;-82
2023/06/26 04:09:49;;;;;;;11.73;8.82;;;22.00;66.60;;;;;;5006721;28;20133;-82
2023/06/26 04:12:16;;;;;;;11.73;7.80;;;22.00;66.80;;;;;;5006057;28;20465;-82
2023/06/26 04:14:45;;;;;;;11.00;8.27;;;22.00;66.80;;;;;;5006518;28;20043;-82
2023/06/26 04:17:12;;;;;;;11.15;7.85;;;22.00;66.90;;;;;;5005136;28;20073;-83
2023/06/26 04:19:38;;;;;;;11.60;7.67;;;22.00;67.10;;;;;;5006654;28;20058;-82
2023/06/26 04:22:05;;;;;;;11.48;7.65;;;22.00;67.30;;;;;;5006116;28;20515;-82
2023/06/26 04:24:32;;;;;;;12.10;7.35;;;22.10;67.50;;;;;;5006192;28;20053;-83
2023/06/26 04:26:59;;;;;;;10.63;6.95;;;22.10;67.70;;;;;;5006076;28;20138;-82
2023/06/26 04:29:27;;;;;;;11.05;6.72;;;22.10;67.80;;;;;;5006427;28;20559;-82
2023/06/26 04:31:57;;;;;;;10.03;6.60;;;22.10;68.10;;;;;;5007474;28;20697;-82
2023/06/26 04:34:25;;;;;;;12.10;6.65;;;22.10;68.10;;;;;;4988836;28;20588;-82
2023/06/26 04:36:51;;;;;;;13.55;7.78;;;22.10;68.30;;;;;;5009593;28;20497;-83
2023/06/26 04:39:19;;;;;;;10.85;7.28;;;22.10;68.70;;;;;;5010971;28;20471;-82
2023/06/26 04:41:46;;;;;;;11.93;6.95;;;22.10;68.90;;;;;;5005512;28;20138;-82
2023/06/26 04:44:13;;;;;;;12.27;5.50;;;22.00;69.30;;;;;;4990065;28;20054;-82
2023/06/26 04:46:41;;;;;;;13.18;7.80;;;22.00;70.00;;;;;;4995711;28;20058;-83
2023/06/26 04:49:09;;;;;;;8.65;4.75;;;22.00;70.30;;;;;;5009431;28;20497;-82
2023/06/26 04:51:40;;;;;;;11.57;6.65;;;22.00;70.70;;;;;;5007651;28;20575;-83
2023/06/26 04:54:07;;;;;;;12.43;6.70;;;22.00;70.90;;;;;;5009410;28;20050;-83
2023/06/26 04:56:34;;;;;;;14.43;7.97;;;21.90;71.00;;;;;;5009075;28;20059;-82
2023/06/26 04:59:01;;;;;;;13.90;6.20;;;21.90;71.40;;;;;;5009140;28;20049;-82
2023/06/26 05:01:29;;;;;;;15.52;8.05;;;21.90;71.60;;;;;;5008720;28;20054;-83
2023/06/26 05:03:56;;;;;;;11.57;6.28;;;21.90;71.90;;;;;;5009384;28;20046;-82
2023/06/26 05:06:24;;;;;;;12.73;6.72;;;21.90;72.10;;;;;;5008885;28;20064;-82
2023/06/26 05:08:51;;;;;;;11.20;5.87;;;21.70;72.30;;;;;;5007693;28;20046;-82
2023/06/26 05:11:18;;;;;;;14.70;6.65;;;21.70;72.60;;;;;;5008995;28;20511;-82
2023/06/26 05:13:45;;;;;;;12.85;6.85;;;21.70;73.00;;;;;;5010530;28;20050;-82
2023/06/26 05:16:13;;;;;;;13.93;6.13;;;21.50;72.80;;;;;;5008980;28;20054;-82
2023/06/26 05:18:40;;;;;;;12.50;6.72;;;21.50;72.80;;;;;;5008824;28;20053;-82
2023/06/26 05:21:07;;;;;;;18.53;6.20;;;21.50;73.20;;;;;;5010303;28;20587;-82
2023/06/26 05:23:36;;;;;;;9.80;4.82;;;21.40;73.20;;;;;;5008797;28;20050;-82
2023/06/26 05:26:04;;;;;;;13.10;7.00;;;21.30;73.50;;;;;;5007773;28;20516;-81
2023/06/26 05:28:31;;;;;;;11.32;5.68;;;21.30;73.60;;;;;;5008877;28;20062;-82
2023/06/26 05:30:59;;;;;;;11.95;6.00;;;21.20;73.80;;;;;;5008778;28;20050;-81
2023/06/26 05:33:27;;;;;;;12.03;5.87;;;21.10;73.80;;;;;;5009921;28;20050;-81
2023/06/26 05:35:55;;;;;;;9.98;4.18;;;21.10;74.10;;;;;;5008731;28;20050;-81
2023/06/26 05:38:23;;;;;;;9.23;4.35;;;21.00;74.10;;;;;;4988730;28;20055;-81
2023/06/26 05:40:52;;;;;;;10.88;5.47;;;21.00;74.20;;;;;;5005614;28;20059;-81
2023/06/26 05:43:20;;;;;;;10.32;5.45;;;20.90;74.30;;;;;;5008024;28;20061;-81
2023/06/26 05:45:48;;;;;;;12.37;5.50;;;20.90;74.30;;;;;;5007549;28;20054;-82
2023/06/26 05:48:15;;;;;;;11.50;5.20;;;20.90;74.40;;;;;;4992225;28;20051;-81
2023/06/26 05:50:43;;;;;;;11.40;5.78;;;20.90;74.40;;;;;;5008007;28;20456;-82
2023/06/26 05:53:11;;;;;;;12.10;5.57;;;20.80;74.60;;;;;;5009929;28;20055;-82
2023/06/26 05:55:39;;;;;;;10.48;4.70;;;20.80;74.70;;;;;;5008205;28;20060;-82
2023/06/26 05:58:08;;;;;;;8.73;3.90;;;20.80;74.50;;;;;;5008696;28;20061;-82
2023/06/26 06:00:35;;;;;;;9.18;3.78;;;20.70;75.20;;;;;;5007803;28;20050;-77
2023/06/26 06:03:02;;;;;;;10.45;3.83;;;20.70;74.90;;;;;;5006880;28;20054;-77
2023/06/26 06:05:29;;;;;;;11.15;3.95;;;20.70;74.40;;;;;;5007988;28;20050;-77
2023/06/26 06:07:56;;;;;;;6.45;2.28;;;20.70;73.60;;;;;;5007860;28;20054;-77
2023/06/26 06:10:23;;;;;;;6.90;2.53;;;20.60;73.00;;;;;;5008075;28;20489;-77
2023/06/26 06:12:50;;;;;;;7.93;2.80;;;20.60;72.20;;;;;;5002105;28;20059;-78
2023/06/26 06:15:18;;;;;;;6.05;1.83;;;20.60;71.30;;;;;;5005434;28;20137;-78
2023/06/26 06:17:45;;;;;;;6.63;2.25;;;20.60;70.80;;;;;;5005789;28;20050;-77
2023/06/26 06:20:12;;;;;;;5.63;2.00;;;20.50;70.60;;;;;;5005682;28;20050;-77
2023/06/26 06:22:39;;;;;;;4.80;1.63;;;20.50;69.70;;;;;;5008231;28;20129;-78
2023/06/26 06:25:07;;;;;;;6.40;1.63;;;20.50;69.60;;;;;;5004741;28;20516;-78
2023/06/26 06:27:38;;;;;;;5.75;1.80;;;20.50;69.60;;;;;;5004738;28;20065;-78
2023/06/26 06:30:05;;;;;;;5.60;2.10;;;20.50;69.60;;;;;;5006304;28;20578;-78
2023/06/26 06:32:35;;;;;;;6.22;1.90;;;20.50;69.50;;;;;;5003191;28;20053;-78
2023/06/26 06:35:08;;;;;;;7.77;2.10;;;20.50;69.90;;;;;;5006992;28;20050;-78
2023/06/26 06:37:35;;;;;;;7.28;1.80;;;20.50;67.70;;;;;;5006169;28;20057;-77
2023/06/26 06:40:03;;;;;;;5.35;1.00;;;20.50;67.30;;;;;;5019388;28;20050;-76
2023/06/26 06:42:30;;;;;;;7.55;0.93;;;20.50;65.60;;;;;;5023727;28;20536;-77
2023/06/26 06:44:57;;;;;;;5.68;1.30;;;20.50;65.40;;;;;;5004830;28;20161;-76
2023/06/26 06:47:23;;;;;;;6.70;1.30;;;20.50;65.70;;;;;;5000951;28;20062;-77
2023/06/26 06:49:52;;;;;;;7.22;1.58;;;20.60;65.30;;;;;;4995584;28;20064;-76
2023/06/26 06:52:18;;;;;;;5.22;1.52;;;20.50;66.00;;;;;;5005514;28;20050;-76
2023/06/26 06:54:58;;;;;;;4.43;1.50;;;20.50;66.40;;;;;;5007693;28;20085;-78
2023/06/26 06:57:25;;;;;;;7.60;2.00;;;20.60;65.50;;;;;;5003692;28;20046;-79
2023/06/26 06:59:52;;;;;;;6.03;1.47;;;20.60;65.30;;;;;;4999160;28;20047;-79
2023/06/26 07:02:19;;;;;;;8.77;1.65;;;20.60;65.30;;;;;;4999292;28;20555;-79
2023/06/26 07:04:46;;;;;;;8.05;1.67;;;20.60;65.60;;;;;;4983705;28;20054;-79
2023/06/26 07:07:18;;;;;;;5.70;1.63;;;20.60;66.00;;;;;;5006458;28;20125;-79
2023/06/26 07:09:45;;;;;;;6.85;1.60;;;20.60;65.50;;;;;;4999419;28;20042;-80
2023/06/26 07:12:12;;;;;;;7.40;1.47;;;20.60;66.10;;;;;;5004611;28;20047;-78
2023/06/26 07:14:40;;;;;;;5.30;1.60;;;20.70;66.50;;;;;;4997427;28;20050;-79
2023/06/26 07:17:08;;;;;;;5.38;1.42;;;20.70;66.80;;;;;;4976845;28;20134;-80
2023/06/26 07:19:35;;;;;;;5.18;1.27;;;20.70;66.90;;;;;;4994995;28;20047;-75
2023/06/26 07:22:02;;;;;;;4.68;1.50;;;20.80;66.40;;;;;;4991794;28;20062;-75
2023/06/26 07:24:32;;;;;;;5.23;1.40;;;20.90;65.90;;;;;;5002600;28;20050;-75
2023/06/26 07:27:00;;;;;;;5.88;1.48;;;20.90;66.20;;;;;;4997461;28;20046;-75
2023/06/26 07:29:27;;;;;;;4.95;1.70;;;20.90;66.10;;;;;;5004259;28;20042;-76
2023/06/26 07:31:54;;;;;;;3.90;1.15;;;20.90;66.10;;;;;;5019494;28;20046;-76
2023/06/26 07:34:21;;;;;;;5.53;1.83;;;21.00;65.60;;;;;;5021836;28;20058;-76
2023/06/26 07:36:48;;;;;;;6.47;1.60;;;21.00;65.10;;;;;;5002141;28;20350;-76
2023/06/26 07:39:15;;;;;;;6.10;1.50;;;21.00;66.10;;;;;;4995488;28;20379;-76
2023/06/26 07:41:44;;;;;;;3.97;1.02;;;21.10;65.80;;;;;;4996387;28;20050;-76
2023/06/26 07:44:10;;;;;;;5.53;1.60;;;21.10;65.60;;;;;;5000167;28;20145;-76
2023/06/26 07:46:37;;;;;;;4.20;1.40;;;21.10;65.40;;;;;;5003282;28;20519;-76
2023/06/26 07:49:04;;;;;;;6.27;1.60;;;21.20;65.10;;;;;;5005509;28;20058;-75
2023/06/26 07:51:31;;;;;;;6.07;1.20;;;21.30;63.20;;;;;;5001933;28;20053;-75
2023/06/26 07:53:58;;;;;;;4.05;1.17;;;21.30;63.30;;;;;;5000413;28;20054;-76
2023/06/26 07:56:26;;;;;;;6.07;1.50;;;21.30;63.00;;;;;;5003782;28;20052;-76
2023/06/26 07:58:54;;;;;;;4.82;1.50;;;21.30;63.00;;;;;;5001380;28;20117;-76
2023/06/26 08:01:21;;;;;;;3.27;0.87;;;21.40;62.20;;;;;;5002982;28;20089;-76
2023/06/26 08:03:48;;;;;;;4.38;1.30;;;21.40;61.70;;;;;;4984128;28;20054;-75
2023/06/26 08:06:15;;;;;;;3.88;1.10;;;21.40;61.50;;;;;;4999055;28;20068;-76
2023/06/26 08:08:42;;;;;;;5.43;1.27;;;21.40;61.70;;;;;;4994101;28;20051;-76
2023/06/26 08:11:09;;;;;;;5.63;1.20;;;21.40;61.40;;;;;;5004428;28;20046;-76
2023/06/26 08:13:35;;;;;;;4.63;0.83;;;21.30;61.60;;;;;;5004064;28;20239;-76
2023/06/26 08:16:04;;;;;;;3.25;1.35;;;21.40;61.90;;;;;;5004340;28;20529;-76
2023/06/26 08:18:31;;;;;;;5.40;1.20;;;21.30;61.70;;;;;;5005998;28;20512;-76
2023/06/26 08:20:58;;;;;;;4.70;1.08;;;21.30;61.70;;;;;;5001862;28;20409;-76
2023/06/26 08:23:25;;;;;;;3.47;1.27;;;21.30;62.00;;;;;;5004654;28;20647;-76
2023/06/26 08:25:51;;;;;;;3.83;0.90;;;21.30;61.90;;;;;;5011289;28;20154;-76
2023/06/26 08:28:18;;;;;;;5.18;1.30;;;21.30;61.50;;;;;;5005007;28;20086;-76
2023/06/26 08:30:46;;;;;;;5.43;1.20;;;21.30;62.20;;;;;;4997321;28;20050;-76
2023/06/26 08:33:14;;;;;;;3.83;1.10;;;21.30;62.60;;;;;;4981102;28;20053;-76
2023/06/26 08:35:42;;;;;;;4.90;1.50;;;21.30;62.50;;;;;;5003086;28;20058;-76
2023/06/26 08:38:09;;;;;;;4.13;1.30;;;21.40;62.80;;;;;;5001627;28;20322;-76
2023/06/26 08:40:37;;;;;;;4.20;1.67;;;21.40;62.70;;;;;;5001160;28;20047;-76
2023/06/26 08:43:04;;;;;;;5.55;1.80;;;21.40;62.50;;;;;;5009099;28;20073;-76
2023/06/26 08:45:31;;;;;;;6.05;1.65;;;21.40;62.80;;;;;;5006971;28;20424;-76
2023/06/26 08:48:03;;;;;;;4.95;1.60;;;21.40;62.50;;;;;;5008869;28;20046;-76
2023/06/26 08:50:35;;;;;;;5.93;1.13;;;21.40;62.70;;;;;;5005511;28;20113;-76
2023/06/26 08:53:08;;;;;;;4.25;1.80;;;21.40;62.50;;;;;;5001273;28;20046;-76
2023/06/26 08:55:38;;;;;;;6.47;1.90;;;21.30;62.50;;;;;;5004645;28;20049;-76
2023/06/26 08:58:05;;;;;;;4.80;1.52;;;21.30;62.60;;;;;;4999129;28;20050;-76
2023/06/26 09:00:32;;;;;;;5.35;1.48;;;21.30;62.70;;;;;;5006671;28;20077;-76
2023/06/26 09:02:59;;;;;;;4.23;1.60;;;21.30;63.50;;;;;;5000801;28;20058;-76
2023/06/26 09:05:31;;;;;;;5.90;1.73;;;21.40;64.20;;;;;;5007782;28;20046;-76
2023/06/26 09:07:59;;;;;;;5.38;1.60;;;21.40;63.50;;;;;;5021194;28;20050;-75
2023/06/26 09:10:26;;;;;;;5.57;1.77;;;21.40;62.70;;;;;;5004998;28;20554;-75
2023/06/26 09:12:56;;;;;;;5.85;1.75;;;21.40;62.50;;;;;;4984589;28;20105;-76
2023/06/26 09:15:24;;;;;;;7.07;1.63;;;21.40;62.50;;;;;;4995832;28;20061;-76
2023/06/26 09:17:51;;;;;;;4.35;1.50;;;21.40;63.30;;;;;;5001843;28;20064;-76
2023/06/26 09:20:18;;;;;;;5.47;1.65;;;21.50;63.20;;;;;;5009918;28;20141;-76
2023/06/26 09:22:49;;;;;;;5.15;1.70;;;21.50;62.80;;;;;;5007893;28;20476;-76
2023/06/26 09:25:21;;;;;;;5.38;1.90;;;21.50;62.90;;;;;;5005720;28;20073;-76
2023/06/26 09:27:49;;;;;;;6.07;1.73;;;21.50;62.00;;;;;;5006629;28;20074;-76
2023/06/26 09:30:18;;;;;;;7.22;2.05;;;21.70;62.40;;;;;;5007802;28;20506;-75
2023/06/26 09:32:45;;;;;;;9.57;2.33;;;21.70;62.70;;;;;;5005927;28;20527;-75
2023/06/26 09:35:12;;;;;;;5.72;1.90;;;21.70;62.40;;;;;;5008965;28;20065;-76
2023/06/26 09:37:40;;;;;;;4.88;1.60;;;21.70;62.40;;;;;;5008464;28;20050;-75
2023/06/26 09:40:08;;;;;;;5.07;1.87;;;21.70;60.80;;;;;;5001913;28;20142;-77
2023/06/26 09:42:36;;;;;;;3.95;1.40;;;21.70;60.50;;;;;;5005282;28;20334;-76
2023/06/26 09:45:04;;;;;;;7.57;1.95;;;21.70;60.50;;;;;;5007874;28;20054;-76
2023/06/26 09:47:32;;;;;;;5.85;2.13;;;21.60;61.20;;;;;;5003604;28;20711;-76
2023/06/26 09:49:59;;;;;;;5.72;2.00;;;21.70;61.20;;;;;;5002395;28;20073;-76
2023/06/26 09:52:28;;;;;;;5.33;2.13;;;21.70;59.60;;;;;;4990666;28;20138;-76
2023/06/26 09:55:08;;;;;;;3.45;1.30;;;21.70;59.20;;;;;;5002879;28;20047;-76
2023/06/26 09:57:37;;;;;;;4.82;1.60;;;21.70;59.50;;;;;;5006665;28;20058;-76
2023/06/26 10:00:05;;;;;;;3.95;1.77;;;21.70;58.90;;;;;;5008400;28;20061;-76
2023/06/26 10:02:39;;;;;;;3.47;1.50;;;21.70;58.00;;;;;;5007710;28;20050;-76
2023/06/26 10:05:06;;;;;;;6.80;2.10;;;21.70;57.10;;;;;;4999118;28;20064;-76
2023/06/26 10:07:34;;;;;;;5.00;1.88;;;21.70;57.90;;;;;;5004658;28;20054;-76
2023/06/26 10:10:03;;;;;;;3.58;1.50;;;21.70;57.40;;;;;;5008438;28;20975;-76
2023/06/26 10:12:31;;;;;;;4.03;1.70;;;21.70;58.00;;;;;;5008496;28;20081;-76
2023/06/26 10:15:00;;;;;;;5.95;1.77;;;21.70;56.80;;;;;;5008174;28;20065;-76
2023/06/26 10:17:31;;;;;;;3.70;1.20;;;21.70;57.10;;;;;;4990687;28;20054;-76
2023/06/26 10:20:05;;;;;;;3.60;1.55;;;21.70;55.80;;;;;;5007305;28;20136;-76
2023/06/26 10:22:37;;;;;;;7.38;1.80;;;21.70;54.80;;;;;;5008102;28;20050;-76
2023/06/26 10:25:07;;;;;;;7.07;1.75;;;21.70;55.70;;;;;;5001698;28;20520;-76
2023/06/26 10:27:39;;;;;;;6.45;2.20;;;21.90;56.80;;;;;;4987391;28;20515;-76
2023/06/26 10:30:13;;;;;;;4.03;1.80;;;21.90;55.90;;;;;;5000461;28;20038;-75
2023/06/26 10:32:41;;;;;;;5.93;2.10;;;21.70;56.60;;;;;;4996129;28;20402;-76
2023/06/26 10:35:09;;;;;;;4.45;1.77;;;21.60;56.70;;;;;;4999230;28;20571;-76
2023/06/26 10:37:44;;;;;;;5.45;1.73;;;21.50;57.70;;;;;;5002776;28;20432;-75
2023/06/26 10:40:11;;;;;;;4.97;2.05;;;21.50;58.00;;;;;;5004076;28;20047;-76
2023/06/26 10:42:39;;;;;;;4.37;1.87;;;21.50;58.80;;;;;;5018405;28;20563;-77
2023/06/26 10:45:15;;;;;;;4.32;1.95;;;21.50;59.40;;;;;;4999457;28;20698;-77
2023/06/26 10:47:43;;;;;;;5.68;1.95;;;21.50;60.00;;;;;;5003533;28;20512;-76
2023/06/26 10:50:21;;;;;;;8.80;1.48;;;21.50;58.00;;;;;;5005243;28;20081;-77
2023/06/26 10:53:09;;;;;;;5.75;1.50;;;21.50;56.70;;;;;;5005767;28;20598;-76
2023/06/26 10:55:36;;;;;;;5.17;1.70;;;21.60;56.60;;;;;;4991171;28;20069;-76
2023/06/26 10:58:03;;;;;;;3.97;1.63;;;21.60;57.10;;;;;;5003919;28;20065;-76
2023/06/26 11:00:31;;;;;;;4.57;1.92;;;21.70;57.80;;;;;;4996070;28;20101;-76
2023/06/26 11:03:00;;;;;;;4.57;1.77;;;21.70;56.40;;;;;;4997049;28;20527;-76
2023/06/26 11:05:28;;;;;;;4.85;1.08;;;21.70;55.80;;;;;;4996175;28;20175;-76
2023/06/26 11:08:07;;;;;;;3.17;1.20;;;21.70;55.80;;;;;;4993669;28;20102;-76
2023/06/26 11:10:50;;;;;;;5.20;1.27;;;21.80;54.30;;;;;;5002456;28;20090;-76
2023/06/26 11:13:21;;;;;;;6.43;1.67;;;21.70;55.30;;;;;;4998798;28;20054;-76
2023/06/26 11:15:51;;;;;;;5.20;1.17;;;21.70;55.20;;;;;;5005577;28;20062;-75
2023/06/26 11:18:19;;;;;;;4.68;1.42;;;21.70;55.00;;;;;;5006454;28;20070;-75
2023/06/26 11:20:46;;;;;;;4.43;1.37;;;21.70;54.90;;;;;;5006204;28;20406;-75
2023/06/26 11:23:13;;;;;;;7.35;1.35;;;21.80;54.20;;;;;;4994502;28;20055;-75
2023/06/26 11:25:40;;;;;;;6.68;1.88;;;21.80;56.20;;;;;;4998726;28;20092;-75
2023/06/26 11:28:10;;;;;;;4.65;1.65;;;21.80;57.10;;;;;;5005701;28;20624;-75
2023/06/26 11:30:39;;;;;;;5.20;1.48;;;21.80;55.60;;;;;;5002678;28;20047;-75
2023/06/26 11:33:09;;;;;;;4.90;1.50;;;21.90;56.20;;;;;;5005825;28;20467;-75
2023/06/26 11:35:37;;;;;;;5.85;1.60;;;21.90;56.00;;;;;;5004196;28;20047;-76
2023/06/26 11:38:05;;;;;;;5.50;1.52;;;21.90;56.40;;;;;;5006380;28;20046;-76
2023/06/26 11:40:33;;;;;;;5.95;1.88;;;21.90;56.50;;;;;;5005642;28;20148;-76
2023/06/26 11:43:01;;;;;;;5.93;1.77;;;21.90;55.90;;;;;;5004519;28;20871;-76
2023/06/26 11:45:29;;;;;;;4.57;1.57;;;21.90;55.80;;;;;;5009012;28;20054;-76
2023/06/26 11:47:57;;;;;;;4.32;1.33;;;21.90;55.10;;;;;;4999427;28;20067;-76
2023/06/26 11:50:26;;;;;;;6.40;1.50;;;21.80;56.00;;;;;;5005033;28;20047;-76
2023/06/26 11:52:56;;;;;;;7.05;1.65;;;21.70;56.30;;;;;;4983707;28;20055;-76
2023/06/26 11:55:23;;;;;;;4.32;1.20;;;21.70;56.80;;;;;;5005481;28;20042;-77
2023/06/26 11:57:51;;;;;;;5.77;1.43;;;21.70;55.60;;;;;;5007192;28;20401;-76
2023/06/26 12:00:18;;;;;;;3.42;1.00;;;21.80;55.30;;;;;;5001634;28;20087;-76
2023/06/26 12:02:46;;;;;;;6.25;1.13;;;21.90;55.60;;;;;;5006540;28;20137;-76
2023/06/26 12:05:14;;;;;;;5.43;1.00;;;21.90;55.60;;;;;;5009809;28;20050;-76
2023/06/26 12:07:45;;;;;;;4.45;1.25;;;21.80;56.40;;;;;;4992303;28;20080;-77
2023/06/26 12:10:12;;;;;;;3.73;1.10;;;21.80;55.00;;;;;;5002218;28;20054;-76
2023/06/26 12:12:40;;;;;;;3.53;1.05;;;21.70;55.80;;;;;;5002754;28;20145;-76
2023/06/26 12:15:09;;;;;;;4.57;0.90;;;21.70;56.10;;;;;;5004892;28;21700;-76
2023/06/26 12:17:39;;;;;;;5.93;1.33;;;21.60;56.30;;;;;;5003880;28;20579;-76
2023/06/26 12:20:17;;;;;;;6.57;1.25;;;21.60;56.70;;;;;;5005875;28;20536;-76
2023/06/26 12:22:47;;;;;;;4.90;1.20;;;21.50;56.90;;;;;;5002367;28;20050;-76
2023/06/26 12:25:14;;;;;;;5.75;1.17;;;21.50;56.50;;;;;;5005144;28;20507;-76
2023/06/26 12:27:41;;;;;;;5.22;1.05;;;21.50;56.50;;;;;;5008648;28;20509;-76
2023/06/26 12:30:09;;;;;;;6.22;1.35;;;21.40;56.40;;;;;;5008224;28;20050;-76
2023/06/26 12:32:36;;;;;;;7.13;1.25;;;21.40;57.10;;;;;;5005143;28;20137;-76
2023/06/26 12:35:03;;;;;;;6.53;1.50;;;21.40;56.70;;;;;;5009185;28;20042;-76
2023/06/26 12:37:37;;;;;;;5.40;1.13;;;21.40;55.70;;;;;;5009023;28;20510;-76
2023/06/26 12:40:18;;;;;;;4.85;1.35;;;21.30;55.90;;;;;;5008684;28;20057;-76
2023/06/26 12:42:46;;;;;;;4.53;1.13;;;21.40;55.30;;;;;;5008436;28;20113;-76
2023/06/26 12:45:15;;;;;;;4.88;1.52;;;21.40;55.40;;;;;;5006388;28;20050;-76
2023/06/26 12:47:42;;;;;;;4.60;1.20;;;21.40;55.70;;;;;;4995041;28;20053;-76